sensor_id;sensor_type;location;lat;lon;timestamp;P1;durP1;ratioP1;P2;durP2;ratioP2
60582;SDS011;46415;47.536;19.066;2023-05-23T00:02:10;9.48;;;7.20;;
60582;SDS011;46415;47.536;19.066;2023-05-23T00:05:15;8.68;;;6.97;;
60582;SDS011;46415;47.536;19.066;2023-05-23T00:08:19;8.15;;;6.53;;
60582;SDS011;46415;47.536;19.066;2023-05-23T00:11:22;8.55;;;6.85;;
60582;SDS011;46415;47.536;19.066;2023-05-23T00:14:28;7.18;;;6.43;;
60582;SDS011;46415;47.536;19.066;2023-05-23T00:17:35;7.57;;;6.43;;
60582;SDS011;46415;47.536;19.066;2023-05-23T00:20:40;6.37;;;5.65;;
60582;SDS011;46415;47.536;19.066;2023-05-23T00:23:46;7.53;;;5.80;;
60582;SDS011;46415;47.536;19.066;2023-05-23T00:26:49;8.45;;;6.12;;
60582;SDS011;46415;47.536;19.066;2023-05-23T00:29:53;8.52;;;6.60;;
60582;SDS011;46415;47.536;19.066;2023-05-23T00:32:55;7.75;;;6.05;;
60582;SDS011;46415;47.536;19.066;2023-05-23T00:35:59;6.82;;;6.03;;
60582;SDS011;46415;47.536;19.066;2023-05-23T00:39:03;7.43;;;6.25;;
60582;SDS011;46415;47.536;19.066;2023-05-23T00:42:06;7.25;;;6.32;;
60582;SDS011;46415;47.536;19.066;2023-05-23T00:45:09;9.25;;;6.12;;
60582;SDS011;46415;47.536;19.066;2023-05-23T00:48:13;6.95;;;5.90;;
60582;SDS011;46415;47.536;19.066;2023-05-23T00:51:17;7.57;;;6.55;;
60582;SDS011;46415;47.536;19.066;2023-05-23T00:54:23;7.60;;;5.78;;
60582;SDS011;46415;47.536;19.066;2023-05-23T00:57:28;7.15;;;5.95;;
60582;SDS011;46415;47.536;19.066;2023-05-23T01:00:32;7.90;;;5.65;;
60582;SDS011;46415;47.536;19.066;2023-05-23T01:03:36;6.82;;;5.32;;
60582;SDS011;46415;47.536;19.066;2023-05-23T01:06:39;6.70;;;5.97;;
60582;SDS011;46415;47.536;19.066;2023-05-23T01:09:42;7.32;;;6.10;;
60582;SDS011;46415;47.536;19.066;2023-05-23T01:15:57;6.20;;;5.60;;
60582;SDS011;46415;47.536;19.066;2023-05-23T01:19:10;6.30;;;5.70;;
60582;SDS011;46415;47.536;19.066;2023-05-23T01:22:47;8.38;;;5.37;;
60582;SDS011;46415;47.536;19.066;2023-05-23T01:29:06;6.85;;;5.72;;
60582;SDS011;46415;47.536;19.066;2023-05-23T01:32:14;7.72;;;5.68;;
60582;SDS011;46415;47.536;19.066;2023-05-23T01:35:21;6.78;;;5.78;;
60582;SDS011;46415;47.536;19.066;2023-05-23T01:38:28;6.62;;;5.55;;
60582;SDS011;46415;47.536;19.066;2023-05-23T01:41:31;6.47;;;5.87;;
60582;SDS011;46415;47.536;19.066;2023-05-23T01:44:35;7.15;;;5.45;;
60582;SDS011;46415;47.536;19.066;2023-05-23T01:47:39;6.60;;;5.30;;
60582;SDS011;46415;47.536;19.066;2023-05-23T01:50:43;8.48;;;6.20;;
60582;SDS011;46415;47.536;19.066;2023-05-23T01:53:49;6.47;;;5.78;;
60582;SDS011;46415;47.536;19.066;2023-05-23T01:56:52;6.47;;;5.53;;
60582;SDS011;46415;47.536;19.066;2023-05-23T01:59:55;7.43;;;5.20;;
60582;SDS011;46415;47.536;19.066;2023-05-23T02:02:58;6.50;;;5.90;;
60582;SDS011;46415;47.536;19.066;2023-05-23T02:06:01;6.10;;;5.60;;
60582;SDS011;46415;47.536;19.066;2023-05-23T02:09:04;7.37;;;5.55;;
60582;SDS011;46415;47.536;19.066;2023-05-23T02:12:07;6.72;;;5.90;;
60582;SDS011;46415;47.536;19.066;2023-05-23T02:15:10;7.65;;;5.85;;
60582;SDS011;46415;47.536;19.066;2023-05-23T02:18:13;6.22;;;5.60;;
60582;SDS011;46415;47.536;19.066;2023-05-23T02:21:17;8.32;;;6.25;;
60582;SDS011;46415;47.536;19.066;2023-05-23T02:24:20;6.65;;;6.00;;
60582;SDS011;46415;47.536;19.066;2023-05-23T02:27:23;8.25;;;6.22;;
60582;SDS011;46415;47.536;19.066;2023-05-23T02:30:25;8.85;;;6.05;;
60582;SDS011;46415;47.536;19.066;2023-05-23T02:33:28;8.50;;;6.30;;
60582;SDS011;46415;47.536;19.066;2023-05-23T02:36:31;7.15;;;6.07;;
60582;SDS011;46415;47.536;19.066;2023-05-23T02:39:35;9.60;;;6.90;;
60582;SDS011;46415;47.536;19.066;2023-05-23T02:42:38;7.50;;;6.45;;
60582;SDS011;46415;47.536;19.066;2023-05-23T02:45:41;6.70;;;6.10;;
60582;SDS011;46415;47.536;19.066;2023-05-23T02:48:44;8.52;;;6.50;;
60582;SDS011;46415;47.536;19.066;2023-05-23T02:51:47;7.65;;;6.78;;
60582;SDS011;46415;47.536;19.066;2023-05-23T02:54:50;8.40;;;6.57;;
60582;SDS011;46415;47.536;19.066;2023-05-23T02:57:53;7.32;;;6.12;;
60582;SDS011;46415;47.536;19.066;2023-05-23T03:00:55;7.45;;;6.75;;
60582;SDS011;46415;47.536;19.066;2023-05-23T03:03:58;7.95;;;6.75;;
60582;SDS011;46415;47.536;19.066;2023-05-23T03:07:01;8.73;;;6.72;;
60582;SDS011;46415;47.536;19.066;2023-05-23T03:10:08;8.65;;;6.43;;
60582;SDS011;46415;47.536;19.066;2023-05-23T03:13:11;8.50;;;6.60;;
60582;SDS011;46415;47.536;19.066;2023-05-23T03:16:14;6.87;;;6.18;;
60582;SDS011;46415;47.536;19.066;2023-05-23T03:19:16;8.32;;;6.37;;
60582;SDS011;46415;47.536;19.066;2023-05-23T03:22:20;8.98;;;6.18;;
60582;SDS011;46415;47.536;19.066;2023-05-23T03:25:22;6.57;;;5.87;;
60582;SDS011;46415;47.536;19.066;2023-05-23T03:28:25;6.68;;;5.97;;
60582;SDS011;46415;47.536;19.066;2023-05-23T03:31:28;7.20;;;6.37;;
60582;SDS011;46415;47.536;19.066;2023-05-23T03:34:31;8.20;;;5.75;;
60582;SDS011;46415;47.536;19.066;2023-05-23T03:37:35;7.25;;;6.10;;
60582;SDS011;46415;47.536;19.066;2023-05-23T03:40:37;6.82;;;6.12;;
60582;SDS011;46415;47.536;19.066;2023-05-23T03:43:40;6.85;;;5.60;;
60582;SDS011;46415;47.536;19.066;2023-05-23T03:46:43;7.00;;;5.68;;
60582;SDS011;46415;47.536;19.066;2023-05-23T03:49:45;6.53;;;5.55;;
60582;SDS011;46415;47.536;19.066;2023-05-23T03:52:49;7.32;;;6.07;;
60582;SDS011;46415;47.536;19.066;2023-05-23T03:55:51;7.00;;;6.03;;
60582;SDS011;46415;47.536;19.066;2023-05-23T03:58:55;6.85;;;5.65;;
60582;SDS011;46415;47.536;19.066;2023-05-23T04:01:58;7.45;;;6.12;;
60582;SDS011;46415;47.536;19.066;2023-05-23T04:05:03;6.37;;;5.70;;
60582;SDS011;46415;47.536;19.066;2023-05-23T04:08:06;8.05;;;5.93;;
60582;SDS011;46415;47.536;19.066;2023-05-23T04:11:09;6.57;;;5.62;;
60582;SDS011;46415;47.536;19.066;2023-05-23T04:14:12;7.37;;;5.90;;
60582;SDS011;46415;47.536;19.066;2023-05-23T04:17:16;6.85;;;6.03;;
60582;SDS011;46415;47.536;19.066;2023-05-23T04:20:18;7.25;;;5.55;;
60582;SDS011;46415;47.536;19.066;2023-05-23T04:23:21;6.30;;;5.70;;
60582;SDS011;46415;47.536;19.066;2023-05-23T04:26:25;6.95;;;6.05;;
60582;SDS011;46415;47.536;19.066;2023-05-23T04:29:28;6.20;;;5.60;;
60582;SDS011;46415;47.536;19.066;2023-05-23T04:32:33;7.25;;;5.47;;
60582;SDS011;46415;47.536;19.066;2023-05-23T04:35:37;6.93;;;6.22;;
60582;SDS011;46415;47.536;19.066;2023-05-23T04:38:43;7.22;;;5.55;;
60582;SDS011;46415;47.536;19.066;2023-05-23T04:41:46;9.30;;;6.10;;
60582;SDS011;46415;47.536;19.066;2023-05-23T04:44:49;7.05;;;5.85;;
60582;SDS011;46415;47.536;19.066;2023-05-23T04:47:53;6.32;;;5.20;;
60582;SDS011;46415;47.536;19.066;2023-05-23T04:50:59;6.50;;;5.72;;
60582;SDS011;46415;47.536;19.066;2023-05-23T04:54:04;6.50;;;5.82;;
60582;SDS011;46415;47.536;19.066;2023-05-23T04:57:07;5.68;;;5.18;;
60582;SDS011;46415;47.536;19.066;2023-05-23T05:00:10;5.53;;;5.03;;
60582;SDS011;46415;47.536;19.066;2023-05-23T05:03:14;7.75;;;5.55;;
60582;SDS011;46415;47.536;19.066;2023-05-23T05:06:18;6.00;;;5.40;;
60582;SDS011;46415;47.536;19.066;2023-05-23T05:09:22;6.65;;;5.75;;
60582;SDS011;46415;47.536;19.066;2023-05-23T05:12:26;7.07;;;5.57;;
60582;SDS011;46415;47.536;19.066;2023-05-23T05:15:28;6.53;;;5.80;;
60582;SDS011;46415;47.536;19.066;2023-05-23T05:18:34;7.95;;;5.53;;
60582;SDS011;46415;47.536;19.066;2023-05-23T05:21:37;7.18;;;5.90;;
60582;SDS011;46415;47.536;19.066;2023-05-23T05:24:40;6.10;;;5.35;;
60582;SDS011;46415;47.536;19.066;2023-05-23T05:27:43;6.95;;;5.75;;
60582;SDS011;46415;47.536;19.066;2023-05-23T05:30:47;5.55;;;4.87;;
60582;SDS011;46415;47.536;19.066;2023-05-23T05:33:55;6.37;;;5.03;;
60582;SDS011;46415;47.536;19.066;2023-05-23T05:36:58;6.37;;;5.47;;
60582;SDS011;46415;47.536;19.066;2023-05-23T05:40:02;5.68;;;5.05;;
60582;SDS011;46415;47.536;19.066;2023-05-23T05:43:09;5.85;;;5.15;;
60582;SDS011;46415;47.536;19.066;2023-05-23T05:46:12;7.43;;;4.95;;
60582;SDS011;46415;47.536;19.066;2023-05-23T05:49:16;7.00;;;4.95;;
60582;SDS011;46415;47.536;19.066;2023-05-23T05:52:19;6.60;;;4.80;;
60582;SDS011;46415;47.536;19.066;2023-05-23T05:55:22;5.20;;;4.70;;
60582;SDS011;46415;47.536;19.066;2023-05-23T05:58:25;5.40;;;4.55;;
60582;SDS011;46415;47.536;19.066;2023-05-23T06:01:28;5.87;;;4.78;;
60582;SDS011;46415;47.536;19.066;2023-05-23T06:04:32;6.60;;;4.80;;
60582;SDS011;46415;47.536;19.066;2023-05-23T06:07:35;5.82;;;4.78;;
60582;SDS011;46415;47.536;19.066;2023-05-23T06:10:40;6.30;;;4.30;;
60582;SDS011;46415;47.536;19.066;2023-05-23T06:13:43;5.95;;;4.65;;
60582;SDS011;46415;47.536;19.066;2023-05-23T06:16:47;6.55;;;5.03;;
60582;SDS011;46415;47.536;19.066;2023-05-23T06:19:50;4.80;;;4.40;;
60582;SDS011;46415;47.536;19.066;2023-05-23T06:22:54;4.87;;;4.45;;
60582;SDS011;46415;47.536;19.066;2023-05-23T06:25:57;7.53;;;4.85;;
60582;SDS011;46415;47.536;19.066;2023-05-23T06:29:01;6.95;;;5.03;;
60582;SDS011;46415;47.536;19.066;2023-05-23T06:32:04;6.90;;;4.85;;
60582;SDS011;46415;47.536;19.066;2023-05-23T06:35:07;6.87;;;5.32;;
60582;SDS011;46415;47.536;19.066;2023-05-23T06:38:10;6.95;;;5.40;;
60582;SDS011;46415;47.536;19.066;2023-05-23T06:41:14;6.12;;;5.18;;
60582;SDS011;46415;47.536;19.066;2023-05-23T06:44:16;7.57;;;5.10;;
60582;SDS011;46415;47.536;19.066;2023-05-23T06:47:22;12.95;;;5.00;;
60582;SDS011;46415;47.536;19.066;2023-05-23T06:50:24;5.50;;;5.00;;
60582;SDS011;46415;47.536;19.066;2023-05-23T06:53:28;9.55;;;5.60;;
60582;SDS011;46415;47.536;19.066;2023-05-23T06:56:31;6.15;;;5.12;;
60582;SDS011;46415;47.536;19.066;2023-05-23T06:59:34;8.27;;;4.97;;
60582;SDS011;46415;47.536;19.066;2023-05-23T07:02:37;9.48;;;5.60;;
60582;SDS011;46415;47.536;19.066;2023-05-23T07:05:40;6.35;;;4.85;;
60582;SDS011;46415;47.536;19.066;2023-05-23T07:08:43;7.40;;;5.22;;
60582;SDS011;46415;47.536;19.066;2023-05-23T07:11:49;6.87;;;5.37;;
60582;SDS011;46415;47.536;19.066;2023-05-23T07:14:52;7.87;;;5.55;;
60582;SDS011;46415;47.536;19.066;2023-05-23T07:17:55;7.50;;;5.37;;
60582;SDS011;46415;47.536;19.066;2023-05-23T07:20:57;9.50;;;5.45;;
60582;SDS011;46415;47.536;19.066;2023-05-23T07:24:00;7.10;;;5.45;;
60582;SDS011;46415;47.536;19.066;2023-05-23T07:27:03;7.93;;;5.50;;
60582;SDS011;46415;47.536;19.066;2023-05-23T07:30:08;8.27;;;5.37;;
60582;SDS011;46415;47.536;19.066;2023-05-23T07:33:11;7.97;;;5.93;;
60582;SDS011;46415;47.536;19.066;2023-05-23T07:36:14;6.95;;;5.30;;
60582;SDS011;46415;47.536;19.066;2023-05-23T07:39:18;5.93;;;4.93;;
60582;SDS011;46415;47.536;19.066;2023-05-23T07:42:23;6.72;;;5.50;;
60582;SDS011;46415;47.536;19.066;2023-05-23T07:45:26;6.12;;;4.80;;
60582;SDS011;46415;47.536;19.066;2023-05-23T07:48:29;7.62;;;5.03;;
60582;SDS011;46415;47.536;19.066;2023-05-23T07:51:35;8.70;;;5.68;;
60582;SDS011;46415;47.536;19.066;2023-05-23T07:54:39;7.75;;;4.95;;
60582;SDS011;46415;47.536;19.066;2023-05-23T07:57:43;6.35;;;5.28;;
60582;SDS011;46415;47.536;19.066;2023-05-23T08:00:46;6.53;;;5.43;;
60582;SDS011;46415;47.536;19.066;2023-05-23T08:03:55;6.45;;;5.43;;
60582;SDS011;46415;47.536;19.066;2023-05-23T08:06:59;6.50;;;5.40;;
60582;SDS011;46415;47.536;19.066;2023-05-23T08:10:09;10.35;;;5.28;;
60582;SDS011;46415;47.536;19.066;2023-05-23T08:13:13;6.93;;;5.05;;
60582;SDS011;46415;47.536;19.066;2023-05-23T08:16:18;8.27;;;5.65;;
60582;SDS011;46415;47.536;19.066;2023-05-23T08:19:21;7.90;;;5.57;;
60582;SDS011;46415;47.536;19.066;2023-05-23T08:22:25;6.22;;;5.28;;
60582;SDS011;46415;47.536;19.066;2023-05-23T08:25:27;10.32;;;6.07;;
60582;SDS011;46415;47.536;19.066;2023-05-23T08:28:34;7.15;;;5.30;;
60582;SDS011;46415;47.536;19.066;2023-05-23T08:31:37;8.27;;;5.12;;
60582;SDS011;46415;47.536;19.066;2023-05-23T08:34:40;10.00;;;5.97;;
60582;SDS011;46415;47.536;19.066;2023-05-23T08:37:43;7.50;;;5.97;;
60582;SDS011;46415;47.536;19.066;2023-05-23T08:40:49;7.95;;;5.62;;
60582;SDS011;46415;47.536;19.066;2023-05-23T08:43:54;10.52;;;5.90;;
60582;SDS011;46415;47.536;19.066;2023-05-23T08:46:59;9.63;;;6.10;;
60582;SDS011;46415;47.536;19.066;2023-05-23T08:50:07;8.85;;;5.85;;
60582;SDS011;46415;47.536;19.066;2023-05-23T08:53:14;11.23;;;6.10;;
60582;SDS011;46415;47.536;19.066;2023-05-23T08:56:22;7.20;;;5.28;;
60582;SDS011;46415;47.536;19.066;2023-05-23T08:59:27;6.55;;;5.75;;
60582;SDS011;46415;47.536;19.066;2023-05-23T09:02:31;9.50;;;6.07;;
60582;SDS011;46415;47.536;19.066;2023-05-23T09:05:37;6.65;;;5.03;;
60582;SDS011;46415;47.536;19.066;2023-05-23T09:08:40;6.43;;;5.45;;
60582;SDS011;46415;47.536;19.066;2023-05-23T09:11:43;5.47;;;4.90;;
60582;SDS011;46415;47.536;19.066;2023-05-23T09:14:49;7.55;;;4.93;;
60582;SDS011;46415;47.536;19.066;2023-05-23T09:17:58;6.47;;;4.95;;
60582;SDS011;46415;47.536;19.066;2023-05-23T09:21:02;5.43;;;4.93;;
60582;SDS011;46415;47.536;19.066;2023-05-23T09:24:07;6.12;;;4.85;;
60582;SDS011;46415;47.536;19.066;2023-05-23T09:27:10;6.03;;;4.87;;
60582;SDS011;46415;47.536;19.066;2023-05-23T09:30:13;5.90;;;4.62;;
60582;SDS011;46415;47.536;19.066;2023-05-23T09:33:17;4.65;;;4.22;;
60582;SDS011;46415;47.536;19.066;2023-05-23T09:36:20;4.70;;;3.60;;
60582;SDS011;46415;47.536;19.066;2023-05-23T09:39:22;7.05;;;4.43;;
60582;SDS011;46415;47.536;19.066;2023-05-23T09:42:30;5.97;;;4.57;;
60582;SDS011;46415;47.536;19.066;2023-05-23T09:45:34;4.80;;;4.10;;
60582;SDS011;46415;47.536;19.066;2023-05-23T09:48:39;5.43;;;4.35;;
60582;SDS011;46415;47.536;19.066;2023-05-23T09:51:58;6.43;;;5.03;;
60582;SDS011;46415;47.536;19.066;2023-05-23T09:55:02;6.20;;;5.40;;
60582;SDS011;46415;47.536;19.066;2023-05-23T09:58:06;7.03;;;5.12;;
60582;SDS011;46415;47.536;19.066;2023-05-23T10:01:10;5.28;;;4.47;;
60582;SDS011;46415;47.536;19.066;2023-05-23T10:04:13;5.93;;;4.50;;
60582;SDS011;46415;47.536;19.066;2023-05-23T10:07:30;6.37;;;4.55;;
60582;SDS011;46415;47.536;19.066;2023-05-23T10:10:34;7.37;;;4.80;;
60582;SDS011;46415;47.536;19.066;2023-05-23T10:14:04;6.72;;;4.43;;
60582;SDS011;46415;47.536;19.066;2023-05-23T10:17:18;4.80;;;4.30;;
60582;SDS011;46415;47.536;19.066;2023-05-23T10:20:28;5.43;;;4.68;;
60582;SDS011;46415;47.536;19.066;2023-05-23T10:23:36;6.62;;;4.82;;
60582;SDS011;46415;47.536;19.066;2023-05-23T10:26:39;5.15;;;4.25;;
60582;SDS011;46415;47.536;19.066;2023-05-23T10:29:43;6.37;;;4.65;;
60582;SDS011;46415;47.536;19.066;2023-05-23T10:32:46;5.03;;;4.50;;
60582;SDS011;46415;47.536;19.066;2023-05-23T10:35:55;5.37;;;4.55;;
60582;SDS011;46415;47.536;19.066;2023-05-23T10:39:07;5.78;;;4.40;;
60582;SDS011;46415;47.536;19.066;2023-05-23T10:45:51;5.40;;;4.57;;
60582;SDS011;46415;47.536;19.066;2023-05-23T10:48:54;5.40;;;4.87;;
60582;SDS011;46415;47.536;19.066;2023-05-23T10:55:20;5.72;;;4.65;;
60582;SDS011;46415;47.536;19.066;2023-05-23T10:58:23;6.12;;;4.90;;
60582;SDS011;46415;47.536;19.066;2023-05-23T11:01:26;5.40;;;5.00;;
60582;SDS011;46415;47.536;19.066;2023-05-23T11:04:29;5.35;;;4.85;;
60582;SDS011;46415;47.536;19.066;2023-05-23T11:07:32;6.43;;;4.78;;
60582;SDS011;46415;47.536;19.066;2023-05-23T11:14:00;6.97;;;5.05;;
60582;SDS011;46415;47.536;19.066;2023-05-23T11:17:16;6.62;;;5.22;;
60582;SDS011;46415;47.536;19.066;2023-05-23T11:20:22;6.17;;;5.10;;
60582;SDS011;46415;47.536;19.066;2023-05-23T11:23:38;7.13;;;5.50;;
60582;SDS011;46415;47.536;19.066;2023-05-23T11:26:51;7.32;;;6.57;;
60582;SDS011;46415;47.536;19.066;2023-05-23T11:30:06;6.75;;;5.93;;
60582;SDS011;46415;47.536;19.066;2023-05-23T11:33:16;8.35;;;6.03;;
60582;SDS011;46415;47.536;19.066;2023-05-23T11:36:20;7.40;;;6.30;;
60582;SDS011;46415;47.536;19.066;2023-05-23T11:39:26;5.55;;;5.00;;
60582;SDS011;46415;47.536;19.066;2023-05-23T11:42:29;6.85;;;5.60;;
60582;SDS011;46415;47.536;19.066;2023-05-23T11:45:33;5.85;;;5.20;;
60582;SDS011;46415;47.536;19.066;2023-05-23T11:48:37;4.80;;;4.40;;
60582;SDS011;46415;47.536;19.066;2023-05-23T11:51:46;4.93;;;4.37;;
60582;SDS011;46415;47.536;19.066;2023-05-23T11:54:49;5.57;;;4.60;;
60582;SDS011;46415;47.536;19.066;2023-05-23T11:57:54;5.25;;;4.40;;
60582;SDS011;46415;47.536;19.066;2023-05-23T12:01:01;4.82;;;4.43;;
60582;SDS011;46415;47.536;19.066;2023-05-23T12:04:08;6.97;;;4.75;;
60582;SDS011;46415;47.536;19.066;2023-05-23T12:07:17;6.75;;;5.00;;
60582;SDS011;46415;47.536;19.066;2023-05-23T12:10:21;5.90;;;4.78;;
60582;SDS011;46415;47.536;19.066;2023-05-23T12:13:29;7.07;;;4.93;;
60582;SDS011;46415;47.536;19.066;2023-05-23T12:16:32;5.82;;;4.70;;
60582;SDS011;46415;47.536;19.066;2023-05-23T12:19:36;6.78;;;4.90;;
60582;SDS011;46415;47.536;19.066;2023-05-23T12:22:40;4.90;;;4.10;;
60582;SDS011;46415;47.536;19.066;2023-05-23T12:25:43;8.10;;;4.50;;
60582;SDS011;46415;47.536;19.066;2023-05-23T12:28:46;4.95;;;4.53;;
60582;SDS011;46415;47.536;19.066;2023-05-23T12:31:49;5.03;;;4.53;;
60582;SDS011;46415;47.536;19.066;2023-05-23T12:34:53;7.47;;;4.32;;
60582;SDS011;46415;47.536;19.066;2023-05-23T12:37:56;5.40;;;4.22;;
60582;SDS011;46415;47.536;19.066;2023-05-23T12:44:14;5.20;;;4.50;;
60582;SDS011;46415;47.536;19.066;2023-05-23T12:47:18;4.68;;;4.32;;
60582;SDS011;46415;47.536;19.066;2023-05-23T12:50:22;4.20;;;3.90;;
60582;SDS011;46415;47.536;19.066;2023-05-23T12:53:25;6.35;;;4.35;;
60582;SDS011;46415;47.536;19.066;2023-05-23T12:56:28;4.90;;;4.40;;
60582;SDS011;46415;47.536;19.066;2023-05-23T12:59:31;7.62;;;4.37;;
60582;SDS011;46415;47.536;19.066;2023-05-23T13:02:33;4.62;;;4.22;;
60582;SDS011;46415;47.536;19.066;2023-05-23T13:05:37;6.43;;;4.20;;
60582;SDS011;46415;47.536;19.066;2023-05-23T13:08:40;4.47;;;3.62;;
60582;SDS011;46415;47.536;19.066;2023-05-23T13:11:44;4.78;;;4.30;;
60582;SDS011;46415;47.536;19.066;2023-05-23T13:14:48;4.43;;;4.03;;
60582;SDS011;46415;47.536;19.066;2023-05-23T13:17:51;4.90;;;4.20;;
60582;SDS011;46415;47.536;19.066;2023-05-23T13:20:54;4.37;;;4.00;;
60582;SDS011;46415;47.536;19.066;2023-05-23T13:23:57;4.50;;;4.10;;
60582;SDS011;46415;47.536;19.066;2023-05-23T13:27:00;4.93;;;4.32;;
60582;SDS011;46415;47.536;19.066;2023-05-23T13:30:03;5.12;;;4.32;;
60582;SDS011;46415;47.536;19.066;2023-05-23T13:33:07;7.25;;;4.35;;
60582;SDS011;46415;47.536;19.066;2023-05-23T13:36:11;8.07;;;4.55;;
60582;SDS011;46415;47.536;19.066;2023-05-23T13:39:13;7.07;;;4.32;;
60582;SDS011;46415;47.536;19.066;2023-05-23T13:42:16;6.20;;;4.10;;
60582;SDS011;46415;47.536;19.066;2023-05-23T13:45:19;5.10;;;4.60;;
60582;SDS011;46415;47.536;19.066;2023-05-23T13:48:24;4.60;;;4.20;;
60582;SDS011;46415;47.536;19.066;2023-05-23T13:51:27;4.53;;;4.00;;
60582;SDS011;46415;47.536;19.066;2023-05-23T13:54:30;6.37;;;4.30;;
60582;SDS011;46415;47.536;19.066;2023-05-23T13:57:32;6.05;;;4.00;;
60582;SDS011;46415;47.536;19.066;2023-05-23T14:00:35;5.45;;;3.90;;
60582;SDS011;46415;47.536;19.066;2023-05-23T14:03:39;5.50;;;4.10;;
60582;SDS011;46415;47.536;19.066;2023-05-23T14:06:41;4.68;;;3.50;;
60582;SDS011;46415;47.536;19.066;2023-05-23T14:09:44;4.53;;;3.85;;
60582;SDS011;46415;47.536;19.066;2023-05-23T14:12:47;4.62;;;4.18;;
60582;SDS011;46415;47.536;19.066;2023-05-23T14:15:50;6.68;;;4.10;;
60582;SDS011;46415;47.536;19.066;2023-05-23T14:18:54;5.28;;;3.95;;
60582;SDS011;46415;47.536;19.066;2023-05-23T14:21:57;6.28;;;3.85;;
60582;SDS011;46415;47.536;19.066;2023-05-23T14:25:00;5.40;;;4.00;;
60582;SDS011;46415;47.536;19.066;2023-05-23T14:28:03;4.97;;;3.80;;
60582;SDS011;46415;47.536;19.066;2023-05-23T14:31:05;4.97;;;3.62;;
60582;SDS011;46415;47.536;19.066;2023-05-23T14:34:08;3.85;;;3.33;;
60582;SDS011;46415;47.536;19.066;2023-05-23T14:37:11;4.47;;;4.00;;
60582;SDS011;46415;47.536;19.066;2023-05-23T14:40:13;6.72;;;3.58;;
60582;SDS011;46415;47.536;19.066;2023-05-23T14:43:17;4.10;;;3.30;;
60582;SDS011;46415;47.536;19.066;2023-05-23T14:46:20;5.22;;;4.10;;
60582;SDS011;46415;47.536;19.066;2023-05-23T14:49:23;5.78;;;3.55;;
60582;SDS011;46415;47.536;19.066;2023-05-23T14:52:26;4.05;;;3.47;;
60582;SDS011;46415;47.536;19.066;2023-05-23T14:55:28;4.87;;;3.50;;
60582;SDS011;46415;47.536;19.066;2023-05-23T14:58:31;4.18;;;3.55;;
60582;SDS011;46415;47.536;19.066;2023-05-23T15:01:34;4.20;;;3.80;;
60582;SDS011;46415;47.536;19.066;2023-05-23T15:04:41;4.43;;;3.85;;
60582;SDS011;46415;47.536;19.066;2023-05-23T15:07:44;4.82;;;3.53;;
60582;SDS011;46415;47.536;19.066;2023-05-23T15:10:47;3.62;;;3.30;;
60582;SDS011;46415;47.536;19.066;2023-05-23T15:13:50;4.70;;;3.78;;
60582;SDS011;46415;47.536;19.066;2023-05-23T15:16:53;3.65;;;3.35;;
60582;SDS011;46415;47.536;19.066;2023-05-23T15:19:56;5.47;;;3.40;;
60582;SDS011;46415;47.536;19.066;2023-05-23T15:22:59;4.25;;;3.05;;
60582;SDS011;46415;47.536;19.066;2023-05-23T15:26:02;5.40;;;3.20;;
60582;SDS011;46415;47.536;19.066;2023-05-23T15:29:05;3.60;;;3.30;;
60582;SDS011;46415;47.536;19.066;2023-05-23T15:32:07;3.78;;;3.22;;
60582;SDS011;46415;47.536;19.066;2023-05-23T15:35:10;4.72;;;2.80;;
60582;SDS011;46415;47.536;19.066;2023-05-23T15:38:13;4.43;;;3.80;;
60582;SDS011;46415;47.536;19.066;2023-05-23T15:41:19;4.78;;;3.33;;
60582;SDS011;46415;47.536;19.066;2023-05-23T15:44:22;3.95;;;3.55;;
60582;SDS011;46415;47.536;19.066;2023-05-23T15:47:25;4.37;;;3.83;;
60582;SDS011;46415;47.536;19.066;2023-05-23T15:50:28;3.90;;;3.60;;
60582;SDS011;46415;47.536;19.066;2023-05-23T15:53:31;5.75;;;3.92;;
60582;SDS011;46415;47.536;19.066;2023-05-23T15:56:44;4.00;;;3.60;;
60582;SDS011;46415;47.536;19.066;2023-05-23T15:59:47;6.25;;;3.90;;
60582;SDS011;46415;47.536;19.066;2023-05-23T16:02:50;4.70;;;4.15;;
60582;SDS011;46415;47.536;19.066;2023-05-23T16:05:53;4.95;;;4.40;;
60582;SDS011;46415;47.536;19.066;2023-05-23T16:08:55;5.05;;;4.18;;
60582;SDS011;46415;47.536;19.066;2023-05-23T16:11:58;4.40;;;3.60;;
60582;SDS011;46415;47.536;19.066;2023-05-23T16:15:01;4.18;;;3.83;;
60582;SDS011;46415;47.536;19.066;2023-05-23T16:18:04;5.07;;;3.87;;
60582;SDS011;46415;47.536;19.066;2023-05-23T16:21:07;4.12;;;3.72;;
60582;SDS011;46415;47.536;19.066;2023-05-23T16:24:11;4.18;;;3.80;;
60582;SDS011;46415;47.536;19.066;2023-05-23T16:27:15;4.93;;;3.60;;
60582;SDS011;46415;47.536;19.066;2023-05-23T16:30:18;4.00;;;3.60;;
60582;SDS011;46415;47.536;19.066;2023-05-23T16:33:21;4.28;;;3.62;;
60582;SDS011;46415;47.536;19.066;2023-05-23T16:36:24;4.20;;;3.83;;
60582;SDS011;46415;47.536;19.066;2023-05-23T16:39:26;5.53;;;4.10;;
60582;SDS011;46415;47.536;19.066;2023-05-23T16:42:29;4.80;;;4.15;;
60582;SDS011;46415;47.536;19.066;2023-05-23T16:45:32;4.65;;;4.15;;
60582;SDS011;46415;47.536;19.066;2023-05-23T16:48:35;4.32;;;3.92;;
60582;SDS011;46415;47.536;19.066;2023-05-23T16:51:38;5.57;;;4.10;;
60582;SDS011;46415;47.536;19.066;2023-05-23T16:54:41;6.47;;;4.40;;
60582;SDS011;46415;47.536;19.066;2023-05-23T16:57:44;4.30;;;3.83;;
60582;SDS011;46415;47.536;19.066;2023-05-23T17:00:47;5.82;;;3.72;;
60582;SDS011;46415;47.536;19.066;2023-05-23T17:03:50;5.32;;;4.40;;
60582;SDS011;46415;47.536;19.066;2023-05-23T17:06:53;4.45;;;4.00;;
60582;SDS011;46415;47.536;19.066;2023-05-23T17:09:55;6.07;;;4.00;;
60582;SDS011;46415;47.536;19.066;2023-05-23T17:12:58;7.47;;;4.28;;
60582;SDS011;46415;47.536;19.066;2023-05-23T17:16:01;10.02;;;3.97;;
60582;SDS011;46415;47.536;19.066;2023-05-23T17:19:04;11.32;;;4.22;;
60582;SDS011;46415;47.536;19.066;2023-05-23T17:22:07;10.23;;;4.30;;
60582;SDS011;46415;47.536;19.066;2023-05-23T17:25:10;5.07;;;4.12;;
60582;SDS011;46415;47.536;19.066;2023-05-23T17:28:12;7.62;;;4.00;;
60582;SDS011;46415;47.536;19.066;2023-05-23T17:31:15;5.40;;;3.92;;
60582;SDS011;46415;47.536;19.066;2023-05-23T17:34:19;5.32;;;4.20;;
60582;SDS011;46415;47.536;19.066;2023-05-23T17:37:22;4.90;;;4.10;;
60582;SDS011;46415;47.536;19.066;2023-05-23T17:40:27;7.32;;;4.72;;
60582;SDS011;46415;47.536;19.066;2023-05-23T17:43:30;6.40;;;4.15;;
60582;SDS011;46415;47.536;19.066;2023-05-23T17:46:32;5.55;;;4.40;;
60582;SDS011;46415;47.536;19.066;2023-05-23T17:49:35;4.85;;;4.22;;
60582;SDS011;46415;47.536;19.066;2023-05-23T17:52:40;6.15;;;4.28;;
60582;SDS011;46415;47.536;19.066;2023-05-23T17:55:44;6.07;;;4.62;;
60582;SDS011;46415;47.536;19.066;2023-05-23T17:58:46;5.40;;;4.53;;
60582;SDS011;46415;47.536;19.066;2023-05-23T18:01:49;5.57;;;4.40;;
60582;SDS011;46415;47.536;19.066;2023-05-23T18:04:53;5.97;;;4.43;;
60582;SDS011;46415;47.536;19.066;2023-05-23T18:07:56;4.70;;;4.22;;
60582;SDS011;46415;47.536;19.066;2023-05-23T18:10:59;5.47;;;4.37;;
60582;SDS011;46415;47.536;19.066;2023-05-23T18:14:01;5.70;;;4.40;;
60582;SDS011;46415;47.536;19.066;2023-05-23T18:17:05;4.57;;;4.18;;
60582;SDS011;46415;47.536;19.066;2023-05-23T18:20:08;4.82;;;3.90;;
60582;SDS011;46415;47.536;19.066;2023-05-23T18:23:12;4.93;;;4.32;;
60582;SDS011;46415;47.536;19.066;2023-05-23T18:26:15;4.95;;;4.07;;
60582;SDS011;46415;47.536;19.066;2023-05-23T18:29:18;5.30;;;4.00;;
60582;SDS011;46415;47.536;19.066;2023-05-23T18:32:21;4.43;;;4.03;;